createdAt,value
2022-11-06T00:01:36.419Z,2.92
2022-11-06T00:04:03.842Z,2.45
2022-11-06T00:06:49.894Z,2.40
2022-11-06T00:09:19.346Z,2.72
2022-11-06T00:11:47.210Z,2.15
2022-11-06T00:14:14.960Z,2.20
2022-11-06T00:16:43.392Z,2.33
2022-11-06T00:19:11.152Z,2.30
2022-11-06T00:21:38.805Z,1.65
2022-11-06T00:24:07.581Z,2.08
2022-11-06T00:26:35.814Z,2.03
2022-11-06T00:29:04.498Z,2.38
2022-11-06T00:31:35.618Z,2.70
2022-11-06T00:34:07.506Z,2.55
2022-11-06T00:36:35.453Z,2.70
2022-11-06T00:39:03.655Z,3.35
2022-11-06T00:41:31.031Z,3.08
2022-11-06T00:44:01.239Z,3.20
2022-11-06T00:46:29.080Z,2.90
2022-11-06T00:48:56.739Z,2.88
2022-11-06T00:51:29.560Z,2.40
2022-11-06T00:53:58.045Z,2.75
2022-11-06T00:56:26.289Z,2.90
2022-11-06T00:58:54.218Z,2.47
2022-11-06T01:01:24.371Z,2.50
2022-11-06T01:03:57.412Z,2.38
2022-11-06T01:06:27.030Z,2.33
2022-11-06T01:08:55.517Z,2.28
2022-11-06T01:11:31.519Z,2.58
2022-11-06T01:14:06.574Z,2.33
2022-11-06T01:16:33.924Z,2.30
2022-11-06T01:19:01.855Z,2.13
2022-11-06T01:21:32.078Z,2.80
2022-11-06T01:24:05.921Z,3.17
2022-11-06T01:26:38.556Z,2.60
2022-11-06T01:29:10.554Z,2.63
2022-11-06T01:31:38.376Z,3.25
2022-11-06T01:34:05.892Z,2.58
2022-11-06T01:36:33.701Z,2.97
2022-11-06T01:39:04.044Z,2.50
2022-11-06T01:41:39.131Z,2.70
2022-11-06T01:44:35.387Z,2.75
2022-11-06T01:47:27.686Z,3.20
2022-11-06T01:50:00.090Z,2.90
2022-11-06T01:52:28.959Z,2.65
2022-11-06T01:55:06.784Z,2.63
2022-11-06T01:57:34.127Z,2.75
2022-11-06T02:00:01.728Z,2.10
2022-11-06T02:02:29.776Z,2.45
2022-11-06T02:04:57.523Z,2.53
2022-11-06T02:07:24.992Z,2.40
2022-11-06T02:09:52.496Z,2.40
2022-11-06T02:12:32.111Z,2.38
2022-11-06T02:15:20.371Z,2.22
2022-11-06T02:18:11.630Z,2.47
2022-11-06T02:20:39.499Z,1.83
2022-11-06T02:23:27.389Z,2.10
2022-11-06T02:26:03.110Z,1.92
2022-11-06T02:28:36.029Z,1.50
2022-11-06T02:31:06.111Z,1.90
2022-11-06T02:33:35.840Z,2.15
2022-11-06T02:36:05.428Z,1.88
2022-11-06T02:38:35.699Z,1.83
2022-11-06T02:41:08.847Z,2.00
2022-11-06T02:43:44.259Z,2.20
2022-11-06T02:46:24.521Z,2.85
2022-11-06T02:48:57.389Z,2.45
2022-11-06T02:51:27.465Z,2.40
2022-11-06T02:53:57.003Z,2.20
2022-11-06T02:56:26.249Z,2.30
2022-11-06T02:58:57.963Z,2.50
2022-11-06T03:03:57.008Z,2.10
2022-11-06T03:06:27.564Z,1.92
2022-11-06T03:09:03.996Z,2.08
2022-11-06T03:11:35.868Z,2.00
2022-11-06T03:14:26.845Z,2.53
2022-11-06T03:17:00.788Z,2.20
2022-11-06T03:19:39.212Z,2.85
2022-11-06T03:22:13.021Z,2.60
2022-11-06T03:24:48.923Z,2.60
2022-11-06T03:27:35.748Z,2.65
2022-11-06T03:30:13.779Z,2.45
2022-11-06T03:32:57.138Z,2.53
2022-11-06T03:35:35.073Z,2.60
2022-11-06T03:38:16.546Z,2.22
2022-11-06T03:40:49.689Z,2.30
2022-11-06T03:43:22.036Z,2.17
2022-11-06T03:45:53.105Z,2.10
2022-11-06T03:48:39.174Z,2.13
2022-11-06T03:51:34.686Z,2.28
2022-11-06T03:54:22.721Z,1.90
2022-11-06T03:57:10.091Z,2.55
2022-11-06T03:59:43.055Z,2.10
2022-11-06T04:02:13.252Z,2.08
2022-11-06T04:04:46.966Z,2.22
2022-11-06T04:07:20.434Z,2.10
2022-11-06T04:10:09.181Z,2.00
2022-11-06T04:12:57.341Z,1.83
2022-11-06T04:15:25.502Z,2.35
2022-11-06T04:17:53.141Z,2.10
2022-11-06T04:20:41.194Z,2.50
2022-11-06T04:23:12.250Z,2.20
2022-11-06T04:26:15.442Z,2.15
2022-11-06T04:28:47.626Z,2.33
2022-11-06T04:31:21.362Z,1.88
2022-11-06T04:33:53.123Z,2.60
2022-11-06T04:36:37.630Z,2.53
2022-11-06T04:39:16.239Z,2.22
2022-11-06T04:42:02.931Z,2.38
2022-11-06T04:44:41.922Z,1.85
2022-11-06T04:47:11.247Z,2.00
2022-11-06T04:49:39.891Z,2.20
2022-11-06T04:52:09.203Z,2.05
2022-11-06T04:54:36.849Z,1.70
2022-11-06T04:57:04.398Z,2.17
2022-11-06T04:59:35.628Z,2.30
2022-11-06T05:02:03.988Z,1.58
2022-11-06T05:04:32.612Z,1.90
2022-11-06T05:07:00.303Z,1.95
2022-11-06T05:09:27.821Z,1.83
2022-11-06T05:11:55.145Z,1.90
2022-11-06T05:14:22.535Z,2.00
2022-11-06T05:16:49.984Z,1.55
2022-11-06T05:19:17.303Z,1.40
2022-11-06T05:22:03.204Z,1.48
2022-11-06T05:24:30.542Z,1.50
2022-11-06T05:26:59.567Z,1.70
2022-11-06T05:29:27.760Z,1.67
2022-11-06T05:31:55.176Z,1.27
2022-11-06T05:34:22.631Z,1.42
2022-11-06T05:36:49.961Z,1.50
2022-11-06T05:39:17.352Z,1.35
2022-11-06T05:41:44.712Z,1.60
2022-11-06T05:44:12.464Z,1.35
2022-11-06T05:46:48.808Z,1.65
2022-11-06T05:49:18.516Z,1.85
2022-11-06T05:51:46.635Z,1.58
2022-11-06T05:54:14.886Z,1.80
2022-11-06T05:56:42.192Z,1.30
2022-11-06T05:59:09.634Z,1.98
2022-11-06T06:01:37.450Z,2.42
2022-11-06T06:04:11.027Z,1.70
2022-11-06T06:06:39.208Z,2.10
2022-11-06T06:09:06.847Z,2.05
2022-11-06T06:11:34.199Z,2.15
2022-11-06T06:14:01.863Z,2.25
2022-11-06T06:16:29.460Z,1.85
2022-11-06T06:18:56.784Z,1.80
2022-11-06T06:21:24.144Z,2.13
2022-11-06T06:23:51.781Z,2.08
2022-11-06T06:26:19.097Z,1.85
2022-11-06T06:28:49.329Z,2.25
2022-11-06T06:31:16.649Z,2.58
2022-11-06T06:33:43.993Z,2.00
2022-11-06T06:36:11.416Z,2.17
2022-11-06T06:38:39.127Z,2.30
2022-11-06T06:41:08.475Z,2.03
2022-11-06T06:43:36.192Z,1.90
2022-11-06T06:46:06.400Z,2.22
2022-11-06T06:48:34.455Z,1.88
2022-11-06T06:51:03.100Z,2.05
2022-11-06T06:53:31.200Z,2.20
2022-11-06T06:56:00.500Z,1.80
2022-11-06T06:58:29.222Z,2.00
2022-11-06T07:01:02.998Z,1.58
2022-11-06T07:03:31.163Z,1.48
2022-11-06T07:05:59.103Z,1.83
2022-11-06T07:08:27.392Z,2.08
2022-11-06T07:11:02.537Z,1.73
2022-11-06T07:13:35.369Z,2.20
2022-11-06T07:16:05.144Z,1.80
2022-11-06T07:18:33.097Z,2.17
2022-11-06T07:21:00.728Z,2.28
2022-11-06T07:23:28.149Z,2.63
2022-11-06T07:25:55.510Z,2.10
2022-11-06T07:28:22.816Z,2.22
2022-11-06T07:30:50.115Z,2.78
2022-11-06T07:33:17.610Z,2.17
2022-11-06T07:35:44.952Z,2.47
2022-11-06T07:38:12.533Z,2.25
2022-11-06T07:40:40.146Z,1.98
2022-11-06T07:43:09.584Z,1.98
2022-11-06T07:45:38.059Z,2.05
2022-11-06T07:48:06.203Z,2.13
2022-11-06T07:50:33.668Z,2.30
2022-11-06T07:53:04.311Z,2.22
2022-11-06T07:55:31.863Z,2.58
2022-11-06T07:57:59.713Z,2.42
2022-11-06T08:00:27.094Z,2.15
2022-11-06T08:02:54.628Z,2.20
2022-11-06T08:05:22.005Z,2.60
2022-11-06T08:07:49.272Z,2.45
2022-11-06T08:10:16.795Z,2.50
2022-11-06T08:12:44.185Z,3.08
2022-11-06T08:15:11.626Z,2.63
2022-11-06T08:17:38.969Z,2.50
2022-11-06T08:20:07.190Z,2.38
2022-11-06T08:22:34.579Z,2.90
2022-11-06T08:25:01.907Z,3.40
2022-11-06T08:27:29.289Z,2.80
2022-11-06T08:29:56.581Z,2.83
2022-11-06T08:32:24.015Z,2.50
2022-11-06T08:34:51.322Z,2.63
2022-11-06T08:37:18.716Z,1.95
2022-11-06T08:39:46.072Z,2.22
2022-11-06T08:42:14.066Z,2.60
2022-11-06T08:44:42.482Z,2.58
2022-11-06T08:47:09.833Z,2.58
2022-11-06T08:49:37.138Z,2.60
2022-11-06T08:52:04.486Z,2.30
2022-11-06T08:54:31.824Z,2.15
2022-11-06T08:57:00.195Z,2.60
2022-11-06T08:59:27.751Z,2.67
2022-11-06T09:01:57.360Z,2.38
2022-11-06T09:04:24.867Z,2.53
2022-11-06T09:06:52.444Z,2.65
2022-11-06T09:09:19.944Z,2.60
2022-11-06T09:11:47.287Z,2.40
2022-11-06T09:14:14.632Z,2.58
2022-11-06T09:16:41.892Z,2.78
2022-11-06T09:19:09.155Z,2.63
2022-11-06T09:21:36.489Z,2.40
2022-11-06T09:24:04.142Z,2.90
2022-11-06T09:26:31.510Z,3.40
2022-11-06T09:28:58.851Z,3.00
2022-11-06T09:31:26.424Z,2.63
2022-11-06T09:33:54.229Z,3.45
2022-11-06T09:36:21.650Z,3.70
2022-11-06T09:38:49.224Z,2.58
2022-11-06T09:41:25.443Z,2.70
2022-11-06T09:44:36.593Z,2.63
2022-11-06T09:47:09.847Z,2.38
2022-11-06T09:49:49.556Z,3.30
2022-11-06T09:52:33.266Z,3.70
2022-11-06T09:55:26.504Z,3.67
2022-11-06T09:58:05.109Z,3.97
2022-11-06T10:00:32.888Z,3.75
2022-11-06T10:03:29.424Z,3.72
2022-11-06T10:05:56.775Z,3.17
2022-11-06T10:08:28.143Z,3.40
2022-11-06T10:11:19.286Z,3.50
2022-11-06T10:14:01.206Z,2.45
2022-11-06T10:16:54.101Z,3.20
2022-11-06T10:19:41.401Z,2.25
2022-11-06T10:22:18.964Z,2.47
2022-11-06T10:25:04.440Z,2.67
2022-11-06T10:27:45.102Z,2.50
2022-11-06T10:30:15.653Z,2.65
2022-11-06T10:33:05.239Z,2.83
2022-11-06T10:35:42.221Z,2.40
2022-11-06T10:38:27.487Z,2.72
2022-11-06T10:40:55.957Z,2.45
2022-11-06T10:43:32.219Z,3.10
2022-11-06T10:46:13.262Z,2.45
2022-11-06T10:48:46.673Z,2.40
2022-11-06T10:51:25.965Z,3.15
2022-11-06T10:54:07.216Z,2.60
2022-11-06T10:56:55.599Z,2.75
2022-11-06T10:59:23.040Z,2.83
2022-11-06T11:01:50.478Z,3.10
2022-11-06T11:04:17.948Z,5.28
2022-11-06T11:06:45.406Z,2.92
2022-11-06T11:09:31.943Z,3.13
2022-11-06T11:12:00.269Z,2.38
2022-11-06T11:14:30.705Z,2.90
2022-11-06T11:17:02.429Z,2.80
2022-11-06T11:19:38.221Z,3.22
2022-11-06T11:22:17.463Z,2.85
2022-11-06T11:25:04.741Z,2.90
2022-11-06T11:28:03.656Z,2.40
2022-11-06T11:30:32.304Z,2.65
2022-11-06T11:32:59.791Z,2.88
2022-11-06T11:35:30.072Z,2.63
2022-11-06T11:38:15.521Z,2.28
2022-11-06T11:40:43.459Z,2.72
2022-11-06T11:43:19.832Z,2.85
2022-11-06T11:46:18.280Z,3.00
2022-11-06T11:48:55.697Z,2.50
2022-11-06T11:51:37.840Z,3.10
2022-11-06T11:54:13.973Z,3.00
2022-11-06T11:57:08.780Z,2.80
2022-11-06T11:59:46.297Z,3.08
2022-11-06T12:02:25.247Z,3.33
2022-11-06T12:04:58.661Z,3.45
2022-11-06T12:07:35.865Z,2.42
2022-11-06T12:10:33.681Z,2.88
2022-11-06T12:13:04.983Z,5.20
2022-11-06T12:15:55.008Z,3.65
2022-11-06T12:18:31.493Z,3.20
2022-11-06T12:21:26.493Z,3.95
2022-11-06T12:24:04.341Z,4.90
2022-11-06T12:26:43.633Z,3.53
2022-11-06T12:29:14.446Z,2.92
2022-11-06T12:32:18.882Z,2.53
2022-11-06T12:34:58.580Z,2.50
2022-11-06T12:37:40.950Z,2.78
2022-11-06T12:40:25.019Z,2.28
2022-11-06T12:43:11.386Z,2.45
2022-11-06T12:45:50.469Z,2.00
2022-11-06T12:48:41.875Z,2.08
2022-11-06T12:51:28.047Z,2.50
2022-11-06T12:54:12.554Z,2.20
2022-11-06T12:57:04.292Z,2.10
2022-11-06T12:59:44.971Z,2.15
2022-11-06T13:02:25.194Z,2.20
2022-11-06T13:05:01.846Z,2.40
2022-11-06T13:07:43.779Z,2.53
2022-11-06T13:13:02.435Z,2.65
2022-11-06T13:15:39.253Z,3.10
2022-11-06T13:18:15.104Z,2.45
2022-11-06T13:20:57.482Z,2.47
2022-11-06T13:23:40.283Z,2.13
2022-11-06T13:26:24.051Z,2.58
2022-11-06T13:29:02.240Z,2.85
2022-11-06T13:32:00.667Z,2.80
2022-11-06T13:34:32.578Z,2.22
2022-11-06T13:37:01.293Z,2.80
2022-11-06T13:39:41.288Z,3.42
2022-11-06T13:42:29.290Z,2.92
2022-11-06T13:44:57.760Z,2.42
2022-11-06T13:47:41.433Z,3.35
2022-11-06T13:50:22.163Z,3.17
2022-11-06T13:53:00.412Z,3.20
2022-11-06T13:55:36.949Z,2.92
2022-11-06T13:58:16.555Z,3.38
2022-11-06T14:01:05.341Z,3.17
2022-11-06T14:03:48.184Z,3.50
2022-11-06T14:06:27.733Z,3.22
2022-11-06T14:09:06.529Z,3.28
2022-11-06T14:11:38.010Z,3.83
2022-11-06T14:14:23.142Z,2.83
2022-11-06T14:17:13.046Z,3.47
2022-11-06T14:19:51.311Z,3.85
2022-11-06T14:22:29.254Z,4.28
2022-11-06T14:25:01.586Z,4.65
2022-11-06T14:27:29.510Z,3.55
2022-11-06T14:30:01.110Z,4.13
2022-11-06T14:32:31.152Z,4.45
2022-11-06T14:35:30.988Z,4.40
2022-11-06T14:38:10.688Z,5.25
2022-11-06T14:40:39.369Z,5.20
2022-11-06T14:43:27.823Z,6.28
2022-11-06T14:46:05.132Z,5.05
2022-11-06T14:48:47.142Z,5.65
2022-11-06T14:53:55.456Z,5.88
2022-11-06T14:56:26.978Z,5.25
2022-11-06T14:59:08.890Z,5.25
2022-11-06T15:01:37.710Z,5.90
2022-11-06T15:04:15.018Z,5.47
2022-11-06T15:06:48.242Z,5.53
2022-11-06T15:09:24.567Z,6.35
2022-11-06T15:11:55.048Z,6.75
2022-11-06T15:14:22.254Z,6.32
2022-11-06T15:16:54.557Z,6.38
2022-11-06T15:19:33.521Z,6.43
2022-11-06T15:22:26.311Z,6.75
2022-11-06T15:25:22.259Z,6.93
2022-11-06T15:27:59.510Z,7.78
2022-11-06T15:30:29.377Z,7.20
2022-11-06T15:32:57.494Z,6.90
2022-11-06T15:35:28.666Z,6.53
2022-11-06T15:38:04.700Z,7.63
2022-11-06T15:40:38.355Z,7.88
2022-11-06T15:43:17.519Z,7.93
2022-11-06T15:45:44.896Z,7.80
2022-11-06T15:48:22.730Z,8.60
2022-11-06T15:50:50.116Z,8.20
2022-11-06T15:53:22.697Z,8.70
2022-11-06T15:56:03.393Z,8.45
2022-11-06T15:58:36.459Z,8.25
2022-11-06T16:01:06.215Z,8.02
2022-11-06T16:03:51.925Z,9.35
2022-11-06T16:06:20.211Z,8.90
2022-11-06T16:08:48.960Z,8.15
2022-11-06T16:11:19.465Z,8.60
2022-11-06T16:13:47.807Z,8.68
2022-11-06T16:16:48.787Z,8.68
2022-11-06T16:19:32.533Z,8.82
2022-11-06T16:22:07.891Z,8.55
2022-11-06T16:24:43.636Z,8.45
2022-11-06T16:27:11.668Z,9.77
2022-11-06T16:29:39.860Z,9.57
2022-11-06T16:32:14.042Z,9.45
2022-11-06T16:34:44.431Z,10.05
2022-11-06T16:37:17.712Z,10.30
2022-11-06T16:39:51.011Z,9.25
2022-11-06T16:42:33.021Z,9.40
2022-11-06T16:47:27.913Z,9.60
2022-11-06T16:49:57.112Z,10.52
2022-11-06T16:52:38.883Z,10.82
2022-11-06T16:55:28.387Z,10.18
2022-11-06T16:57:58.726Z,10.32
2022-11-06T17:00:29.280Z,10.07
2022-11-06T17:03:19.968Z,10.32
2022-11-06T17:05:59.523Z,9.07
2022-11-06T17:08:38.629Z,9.40
2022-11-06T17:11:21.632Z,9.18
2022-11-06T17:13:50.459Z,10.73
2022-11-06T17:16:21.622Z,9.32
2022-11-06T17:18:49.524Z,9.75
2022-11-06T17:21:25.116Z,9.18
2022-11-06T17:23:53.040Z,9.20
2022-11-06T17:26:28.265Z,9.77
2022-11-06T17:28:57.205Z,9.35
2022-11-06T17:31:25.524Z,9.52
2022-11-06T17:33:53.508Z,9.50
2022-11-06T17:36:21.039Z,9.25
2022-11-06T17:38:49.456Z,9.65
2022-11-06T17:41:32.305Z,9.05
2022-11-06T17:44:10.592Z,9.23
2022-11-06T17:46:43.540Z,9.52
2022-11-06T17:49:17.077Z,9.85
2022-11-06T17:51:52.460Z,10.93
2022-11-06T17:54:22.024Z,10.82
2022-11-06T17:56:51.303Z,10.65
2022-11-06T17:59:18.763Z,11.00
2022-11-06T18:01:47.820Z,11.40
2022-11-06T18:04:15.379Z,11.30
2022-11-06T18:06:47.216Z,9.65
2022-11-06T18:11:43.255Z,9.10
2022-11-06T18:14:12.805Z,9.35
2022-11-06T18:16:43.897Z,10.38
2022-11-06T18:19:14.995Z,10.63
2022-11-06T18:21:42.229Z,10.15
2022-11-06T18:24:09.506Z,10.05
2022-11-06T18:26:40.140Z,11.95
2022-11-06T18:29:08.295Z,11.77
2022-11-06T18:31:35.750Z,12.35
2022-11-06T18:34:04.651Z,11.30
2022-11-06T18:36:33.377Z,8.95
2022-11-06T18:39:01.035Z,9.98
2022-11-06T18:41:29.840Z,9.65
2022-11-06T18:43:58.524Z,10.60
2022-11-06T18:46:27.103Z,12.30
2022-11-06T18:48:55.484Z,14.07
2022-11-06T18:51:34.607Z,12.75
2022-11-06T18:54:06.133Z,11.15
2022-11-06T18:56:36.227Z,12.77
2022-11-06T18:59:05.502Z,12.90
2022-11-06T19:01:34.711Z,14.68
2022-11-06T19:04:03.813Z,14.07
2022-11-06T19:06:31.792Z,13.25
2022-11-06T19:08:59.413Z,10.38
2022-11-06T19:11:26.754Z,12.38
2022-11-06T19:13:54.117Z,10.88
2022-11-06T19:16:21.673Z,13.70
2022-11-06T19:21:32.084Z,10.60
2022-11-06T19:24:03.866Z,9.57
2022-11-06T19:26:32.776Z,9.50
2022-11-06T19:29:00.909Z,8.80
2022-11-06T19:31:29.678Z,9.73
2022-11-06T19:33:58.987Z,10.75
2022-11-06T19:36:26.604Z,13.05
2022-11-06T19:38:54.372Z,11.35
2022-11-06T19:41:21.747Z,10.80
2022-11-06T19:43:49.112Z,11.18
2022-11-06T19:46:24.171Z,11.10
2022-11-06T19:48:54.517Z,11.98
2022-11-06T19:51:21.993Z,10.35
2022-11-06T19:53:53.130Z,11.00
2022-11-06T19:56:21.456Z,10.95
2022-11-06T19:58:50.379Z,10.85
2022-11-06T20:01:18.598Z,10.18
2022-11-06T20:03:46.342Z,10.80
2022-11-06T20:06:14.834Z,11.82
2022-11-06T20:08:42.803Z,12.60
2022-11-06T20:11:15.367Z,12.00
2022-11-06T20:13:44.589Z,11.25
2022-11-06T20:16:18.093Z,10.25
2022-11-06T20:18:51.267Z,10.68
2022-11-06T20:21:18.972Z,11.25
2022-11-06T20:23:46.359Z,12.27
2022-11-06T20:26:14.239Z,12.50
2022-11-06T20:28:42.933Z,11.85
2022-11-06T20:31:11.838Z,11.45
2022-11-06T20:33:40.223Z,11.80
2022-11-06T20:36:23.226Z,11.45
2022-11-06T20:38:55.415Z,11.95
2022-11-06T20:41:24.000Z,11.27
2022-11-06T20:43:52.258Z,12.80
2022-11-06T20:46:22.573Z,13.45
2022-11-06T20:48:51.152Z,12.13
2022-11-06T20:51:22.103Z,11.82
2022-11-06T20:53:49.656Z,12.90
2022-11-06T20:56:21.441Z,10.65
2022-11-06T21:01:19.950Z,10.05
2022-11-06T21:03:49.850Z,9.93
2022-11-06T21:06:19.836Z,9.43
2022-11-06T21:08:48.066Z,10.13
2022-11-06T21:11:21.952Z,9.80
2022-11-06T21:13:51.754Z,9.88
2022-11-06T21:16:31.381Z,9.77
2022-11-06T21:18:59.661Z,9.52
2022-11-06T21:21:29.171Z,10.05
2022-11-06T21:23:56.568Z,9.65
2022-11-06T21:26:26.309Z,9.00
2022-11-06T21:28:53.696Z,9.38
2022-11-06T21:31:23.658Z,10.90
2022-11-06T21:33:52.376Z,9.30
2022-11-06T21:36:22.851Z,9.50
2022-11-06T21:38:50.134Z,10.52
2022-11-06T21:41:23.298Z,9.52
2022-11-06T21:43:50.670Z,9.38
2022-11-06T21:46:18.653Z,8.77
2022-11-06T21:48:47.726Z,8.93
2022-11-06T21:51:22.389Z,8.93
2022-11-06T21:54:08.739Z,8.80
2022-11-06T21:56:37.297Z,8.80
2022-11-06T21:59:07.042Z,8.80
2022-11-06T22:01:34.939Z,8.52
2022-11-06T22:04:02.791Z,8.63
2022-11-06T22:06:30.696Z,9.43
2022-11-06T22:09:01.030Z,8.15
2022-11-06T22:11:34.270Z,8.30
2022-11-06T22:14:03.478Z,8.48
2022-11-06T22:16:35.208Z,8.93
2022-11-06T22:19:03.316Z,7.93
2022-11-06T22:21:30.949Z,8.18
2022-11-06T22:23:58.331Z,9.25
2022-11-06T22:26:29.302Z,8.20
2022-11-06T22:28:58.969Z,8.50
2022-11-06T22:31:26.885Z,9.00
2022-11-06T22:33:54.491Z,8.18
2022-11-06T22:36:23.000Z,7.57
2022-11-06T22:38:51.165Z,8.43
2022-11-06T22:41:21.142Z,7.85
2022-11-06T22:43:48.608Z,7.82
2022-11-06T22:46:17.667Z,7.82
2022-11-06T22:48:45.464Z,7.60
2022-11-06T22:51:15.722Z,6.78
2022-11-06T22:53:43.398Z,6.35
2022-11-06T22:56:12.691Z,5.80
2022-11-06T22:58:42.364Z,7.45
2022-11-06T23:01:11.092Z,6.50
2022-11-06T23:03:39.767Z,6.20
2022-11-06T23:06:08.915Z,6.38
2022-11-06T23:08:44.209Z,6.65
2022-11-06T23:11:15.608Z,5.88
2022-11-06T23:13:45.661Z,6.32
2022-11-06T23:16:15.136Z,6.35
2022-11-06T23:18:43.305Z,5.78
2022-11-06T23:21:18.370Z,6.45
2022-11-06T23:23:46.218Z,5.55
2022-11-06T23:26:13.948Z,5.85
2022-11-06T23:28:41.655Z,5.32
2022-11-06T23:31:10.388Z,5.40
2022-11-06T23:33:38.096Z,4.95
2022-11-06T23:36:09.033Z,5.32
2022-11-06T23:38:36.701Z,5.13
2022-11-06T23:41:26.713Z,5.38
2022-11-06T23:43:54.958Z,5.38
2022-11-06T23:46:23.272Z,5.18
2022-11-06T23:48:51.172Z,5.88
2022-11-06T23:51:19.565Z,5.82
2022-11-06T23:53:47.239Z,5.40
2022-11-06T23:56:14.979Z,5.78
2022-11-06T23:58:43.005Z,6.18
